sensor_id;sensor_type;location;lat;lon;timestamp;P1;durP1;ratioP1;P2;durP2;ratioP2
11854;SDS011;5987;53.140;8.904;2022-07-06T00:02:58;3.23;;;1.50;;
11854;SDS011;5987;53.140;8.904;2022-07-06T00:06:02;4.57;;;1.53;;
11854;SDS011;5987;53.140;8.904;2022-07-06T00:09:07;7.63;;;2.00;;
11854;SDS011;5987;53.140;8.904;2022-07-06T00:12:11;4.70;;;1.90;;
11854;SDS011;5987;53.140;8.904;2022-07-06T00:15:15;5.13;;;1.70;;
11854;SDS011;5987;53.140;8.904;2022-07-06T00:18:18;3.70;;;1.53;;
11854;SDS011;5987;53.140;8.904;2022-07-06T00:21:23;5.77;;;1.90;;
11854;SDS011;5987;53.140;8.904;2022-07-06T00:24:28;7.17;;;1.83;;
11854;SDS011;5987;53.140;8.904;2022-07-06T00:27:32;4.97;;;1.60;;
11854;SDS011;5987;53.140;8.904;2022-07-06T00:30:35;7.03;;;1.87;;
11854;SDS011;5987;53.140;8.904;2022-07-06T00:33:39;4.03;;;1.50;;
11854;SDS011;5987;53.140;8.904;2022-07-06T00:36:43;5.47;;;1.57;;
11854;SDS011;5987;53.140;8.904;2022-07-06T00:39:48;4.50;;;1.70;;
11854;SDS011;5987;53.140;8.904;2022-07-06T00:42:51;3.30;;;1.33;;
11854;SDS011;5987;53.140;8.904;2022-07-06T00:45:55;5.07;;;1.90;;
11854;SDS011;5987;53.140;8.904;2022-07-06T00:48:59;3.57;;;1.30;;
11854;SDS011;5987;53.140;8.904;2022-07-06T00:52:03;4.07;;;1.47;;
11854;SDS011;5987;53.140;8.904;2022-07-06T00:55:09;7.30;;;2.07;;
11854;SDS011;5987;53.140;8.904;2022-07-06T00:58:14;6.40;;;1.70;;
11854;SDS011;5987;53.140;8.904;2022-07-06T01:01:18;6.30;;;1.40;;
11854;SDS011;5987;53.140;8.904;2022-07-06T01:04:23;4.70;;;1.60;;
11854;SDS011;5987;53.140;8.904;2022-07-06T01:07:27;7.27;;;1.70;;
11854;SDS011;5987;53.140;8.904;2022-07-06T01:10:32;3.43;;;1.23;;
11854;SDS011;5987;53.140;8.904;2022-07-06T01:13:36;4.10;;;1.50;;
11854;SDS011;5987;53.140;8.904;2022-07-06T01:16:41;6.00;;;1.80;;
11854;SDS011;5987;53.140;8.904;2022-07-06T01:19:45;4.37;;;1.80;;
11854;SDS011;5987;53.140;8.904;2022-07-06T01:22:51;5.87;;;1.50;;
11854;SDS011;5987;53.140;8.904;2022-07-06T01:25:57;4.20;;;2.00;;
11854;SDS011;5987;53.140;8.904;2022-07-06T01:29:01;7.13;;;1.97;;
11854;SDS011;5987;53.140;8.904;2022-07-06T01:32:05;5.03;;;2.20;;
11854;SDS011;5987;53.140;8.904;2022-07-06T01:35:10;5.00;;;1.97;;
11854;SDS011;5987;53.140;8.904;2022-07-06T01:38:18;4.07;;;1.60;;
11854;SDS011;5987;53.140;8.904;2022-07-06T01:41:22;3.57;;;2.03;;
11854;SDS011;5987;53.140;8.904;2022-07-06T01:44:25;5.97;;;1.80;;
11854;SDS011;5987;53.140;8.904;2022-07-06T01:47:29;3.17;;;1.77;;
11854;SDS011;5987;53.140;8.904;2022-07-06T01:50:34;2.87;;;1.70;;
11854;SDS011;5987;53.140;8.904;2022-07-06T01:53:39;3.57;;;1.60;;
11854;SDS011;5987;53.140;8.904;2022-07-06T01:56:43;3.93;;;1.90;;
11854;SDS011;5987;53.140;8.904;2022-07-06T01:59:47;5.60;;;1.97;;
11854;SDS011;5987;53.140;8.904;2022-07-06T02:02:51;3.70;;;1.80;;
11854;SDS011;5987;53.140;8.904;2022-07-06T02:05:54;7.40;;;2.10;;
11854;SDS011;5987;53.140;8.904;2022-07-06T02:08:59;5.83;;;1.83;;
11854;SDS011;5987;53.140;8.904;2022-07-06T02:12:03;3.57;;;1.80;;
11854;SDS011;5987;53.140;8.904;2022-07-06T02:15:08;7.13;;;2.10;;
11854;SDS011;5987;53.140;8.904;2022-07-06T02:18:12;4.10;;;1.90;;
11854;SDS011;5987;53.140;8.904;2022-07-06T02:21:16;9.20;;;2.13;;
11854;SDS011;5987;53.140;8.904;2022-07-06T02:24:21;7.27;;;2.37;;
11854;SDS011;5987;53.140;8.904;2022-07-06T02:27:25;4.50;;;1.83;;
11854;SDS011;5987;53.140;8.904;2022-07-06T02:30:29;4.57;;;1.77;;
11854;SDS011;5987;53.140;8.904;2022-07-06T02:33:33;4.27;;;1.90;;
11854;SDS011;5987;53.140;8.904;2022-07-06T02:36:36;9.20;;;2.03;;
11854;SDS011;5987;53.140;8.904;2022-07-06T02:39:42;4.13;;;1.80;;
11854;SDS011;5987;53.140;8.904;2022-07-06T02:42:45;5.30;;;2.00;;
11854;SDS011;5987;53.140;8.904;2022-07-06T02:45:49;5.57;;;1.67;;
11854;SDS011;5987;53.140;8.904;2022-07-06T02:48:53;5.23;;;2.03;;
11854;SDS011;5987;53.140;8.904;2022-07-06T02:51:56;4.77;;;2.00;;
11854;SDS011;5987;53.140;8.904;2022-07-06T02:55:02;4.70;;;1.97;;
11854;SDS011;5987;53.140;8.904;2022-07-06T02:58:06;4.60;;;1.57;;
11854;SDS011;5987;53.140;8.904;2022-07-06T03:01:10;4.00;;;2.13;;
11854;SDS011;5987;53.140;8.904;2022-07-06T03:04:13;4.60;;;1.90;;
11854;SDS011;5987;53.140;8.904;2022-07-06T03:07:17;7.17;;;2.47;;
11854;SDS011;5987;53.140;8.904;2022-07-06T03:10:22;9.87;;;2.80;;
11854;SDS011;5987;53.140;8.904;2022-07-06T03:13:26;7.23;;;2.30;;
11854;SDS011;5987;53.140;8.904;2022-07-06T03:16:30;5.83;;;2.20;;
11854;SDS011;5987;53.140;8.904;2022-07-06T03:19:34;7.07;;;2.80;;
11854;SDS011;5987;53.140;8.904;2022-07-06T03:22:38;6.27;;;2.33;;
11854;SDS011;5987;53.140;8.904;2022-07-06T03:25:43;3.97;;;2.10;;
11854;SDS011;5987;53.140;8.904;2022-07-06T03:28:47;3.67;;;1.90;;
11854;SDS011;5987;53.140;8.904;2022-07-06T03:31:51;4.30;;;2.00;;
11854;SDS011;5987;53.140;8.904;2022-07-06T03:34:55;4.67;;;1.70;;
11854;SDS011;5987;53.140;8.904;2022-07-06T03:37:58;5.53;;;2.27;;
11854;SDS011;5987;53.140;8.904;2022-07-06T03:41:05;7.07;;;2.33;;
11854;SDS011;5987;53.140;8.904;2022-07-06T03:44:09;2.83;;;1.53;;
11854;SDS011;5987;53.140;8.904;2022-07-06T03:47:12;6.43;;;2.20;;
11854;SDS011;5987;53.140;8.904;2022-07-06T03:50:16;3.70;;;1.87;;
11854;SDS011;5987;53.140;8.904;2022-07-06T03:53:20;8.83;;;2.60;;
11854;SDS011;5987;53.140;8.904;2022-07-06T03:56:25;4.03;;;1.87;;
11854;SDS011;5987;53.140;8.904;2022-07-06T03:59:34;16.47;;;3.57;;
11854;SDS011;5987;53.140;8.904;2022-07-06T04:02:37;5.07;;;2.60;;
11854;SDS011;5987;53.140;8.904;2022-07-06T04:05:41;6.03;;;2.60;;
11854;SDS011;5987;53.140;8.904;2022-07-06T04:08:45;5.60;;;2.40;;
11854;SDS011;5987;53.140;8.904;2022-07-06T04:11:50;4.73;;;1.97;;
11854;SDS011;5987;53.140;8.904;2022-07-06T04:14:55;2.73;;;1.97;;
11854;SDS011;5987;53.140;8.904;2022-07-06T04:18:00;6.20;;;2.63;;
11854;SDS011;5987;53.140;8.904;2022-07-06T04:21:03;6.80;;;2.00;;
11854;SDS011;5987;53.140;8.904;2022-07-06T04:24:07;6.10;;;1.80;;
11854;SDS011;5987;53.140;8.904;2022-07-06T04:27:12;6.43;;;1.80;;
11854;SDS011;5987;53.140;8.904;2022-07-06T04:30:16;8.60;;;2.20;;
11854;SDS011;5987;53.140;8.904;2022-07-06T04:33:20;7.97;;;2.83;;
11854;SDS011;5987;53.140;8.904;2022-07-06T04:36:24;11.13;;;3.77;;
11854;SDS011;5987;53.140;8.904;2022-07-06T04:39:27;8.80;;;3.33;;
11854;SDS011;5987;53.140;8.904;2022-07-06T04:42:34;7.00;;;3.67;;
11854;SDS011;5987;53.140;8.904;2022-07-06T04:45:39;7.50;;;3.87;;
11854;SDS011;5987;53.140;8.904;2022-07-06T04:48:43;8.37;;;3.70;;
11854;SDS011;5987;53.140;8.904;2022-07-06T04:51:47;8.90;;;4.23;;
11854;SDS011;5987;53.140;8.904;2022-07-06T04:54:51;8.20;;;4.10;;
11854;SDS011;5987;53.140;8.904;2022-07-06T04:57:56;8.97;;;4.30;;
11854;SDS011;5987;53.140;8.904;2022-07-06T05:00:59;7.17;;;3.77;;
11854;SDS011;5987;53.140;8.904;2022-07-06T05:04:03;9.43;;;2.37;;
11854;SDS011;5987;53.140;8.904;2022-07-06T05:07:07;10.23;;;2.20;;
11854;SDS011;5987;53.140;8.904;2022-07-06T05:10:11;5.07;;;2.10;;
11854;SDS011;5987;53.140;8.904;2022-07-06T05:13:16;5.33;;;1.50;;
11854;SDS011;5987;53.140;8.904;2022-07-06T05:16:21;4.30;;;1.37;;
11854;SDS011;5987;53.140;8.904;2022-07-06T05:19:24;4.63;;;1.50;;
11854;SDS011;5987;53.140;8.904;2022-07-06T05:22:28;4.30;;;1.27;;
11854;SDS011;5987;53.140;8.904;2022-07-06T05:25:32;3.13;;;1.20;;
11854;SDS011;5987;53.140;8.904;2022-07-06T05:28:38;2.67;;;1.40;;
11854;SDS011;5987;53.140;8.904;2022-07-06T05:31:42;3.63;;;1.30;;
11854;SDS011;5987;53.140;8.904;2022-07-06T05:34:46;3.90;;;1.40;;
11854;SDS011;5987;53.140;8.904;2022-07-06T05:37:49;3.57;;;1.10;;
11854;SDS011;5987;53.140;8.904;2022-07-06T05:40:53;4.33;;;1.30;;
11854;SDS011;5987;53.140;8.904;2022-07-06T05:43:58;4.93;;;1.30;;
11854;SDS011;5987;53.140;8.904;2022-07-06T05:47:02;3.43;;;1.40;;
11854;SDS011;5987;53.140;8.904;2022-07-06T05:50:24;4.40;;;1.37;;
11854;SDS011;5987;53.140;8.904;2022-07-06T05:53:27;3.83;;;1.20;;
11854;SDS011;5987;53.140;8.904;2022-07-06T05:56:31;5.00;;;1.00;;
11854;SDS011;5987;53.140;8.904;2022-07-06T05:59:36;3.23;;;1.00;;
11854;SDS011;5987;53.140;8.904;2022-07-06T06:02:40;5.77;;;1.70;;
11854;SDS011;5987;53.140;8.904;2022-07-06T06:05:45;5.70;;;1.20;;
11854;SDS011;5987;53.140;8.904;2022-07-06T06:08:49;5.80;;;1.40;;
11854;SDS011;5987;53.140;8.904;2022-07-06T06:11:53;2.60;;;1.20;;
11854;SDS011;5987;53.140;8.904;2022-07-06T06:14:58;6.13;;;1.60;;
11854;SDS011;5987;53.140;8.904;2022-07-06T06:18:02;3.07;;;1.13;;
11854;SDS011;5987;53.140;8.904;2022-07-06T06:21:06;4.20;;;1.43;;
11854;SDS011;5987;53.140;8.904;2022-07-06T06:24:10;5.17;;;1.47;;
11854;SDS011;5987;53.140;8.904;2022-07-06T06:27:14;5.50;;;1.43;;
11854;SDS011;5987;53.140;8.904;2022-07-06T06:30:19;3.50;;;1.53;;
11854;SDS011;5987;53.140;8.904;2022-07-06T06:33:23;5.03;;;1.50;;
11854;SDS011;5987;53.140;8.904;2022-07-06T06:36:27;5.90;;;1.57;;
11854;SDS011;5987;53.140;8.904;2022-07-06T06:39:30;9.80;;;2.47;;
11854;SDS011;5987;53.140;8.904;2022-07-06T06:42:35;4.97;;;1.90;;
11854;SDS011;5987;53.140;8.904;2022-07-06T06:45:41;5.63;;;1.80;;
11854;SDS011;5987;53.140;8.904;2022-07-06T06:48:46;6.30;;;1.70;;
11854;SDS011;5987;53.140;8.904;2022-07-06T06:51:50;4.63;;;1.30;;
11854;SDS011;5987;53.140;8.904;2022-07-06T06:55:14;4.87;;;1.40;;
11854;SDS011;5987;53.140;8.904;2022-07-06T06:58:18;3.97;;;1.40;;
11854;SDS011;5987;53.140;8.904;2022-07-06T07:01:24;6.80;;;1.27;;
11854;SDS011;5987;53.140;8.904;2022-07-06T07:04:28;7.60;;;1.30;;
11854;SDS011;5987;53.140;8.904;2022-07-06T07:07:32;7.37;;;1.80;;
11854;SDS011;5987;53.140;8.904;2022-07-06T07:10:36;6.60;;;1.30;;
11854;SDS011;5987;53.140;8.904;2022-07-06T07:13:40;4.60;;;0.93;;
11854;SDS011;5987;53.140;8.904;2022-07-06T07:16:45;5.57;;;0.80;;
11854;SDS011;5987;53.140;8.904;2022-07-06T07:19:49;4.60;;;0.93;;
11854;SDS011;5987;53.140;8.904;2022-07-06T07:22:53;3.67;;;0.90;;
11854;SDS011;5987;53.140;8.904;2022-07-06T07:25:56;0.90;;;0.70;;
11854;SDS011;5987;53.140;8.904;2022-07-06T07:29:00;5.07;;;1.33;;
11854;SDS011;5987;53.140;8.904;2022-07-06T07:32:05;3.03;;;0.83;;
11854;SDS011;5987;53.140;8.904;2022-07-06T07:35:09;4.63;;;1.00;;
11854;SDS011;5987;53.140;8.904;2022-07-06T07:38:14;3.00;;;0.67;;
11854;SDS011;5987;53.140;8.904;2022-07-06T07:41:17;5.50;;;1.00;;
11854;SDS011;5987;53.140;8.904;2022-07-06T07:44:21;3.57;;;1.13;;
11854;SDS011;5987;53.140;8.904;2022-07-06T07:47:27;1.60;;;0.63;;
11854;SDS011;5987;53.140;8.904;2022-07-06T07:50:31;3.33;;;0.70;;
11854;SDS011;5987;53.140;8.904;2022-07-06T07:53:36;4.33;;;0.83;;
11854;SDS011;5987;53.140;8.904;2022-07-06T07:56:40;2.13;;;0.60;;
11854;SDS011;5987;53.140;8.904;2022-07-06T07:59:43;3.07;;;0.80;;
11854;SDS011;5987;53.140;8.904;2022-07-06T08:02:48;1.93;;;0.57;;
11854;SDS011;5987;53.140;8.904;2022-07-06T08:05:52;4.40;;;0.70;;
11854;SDS011;5987;53.140;8.904;2022-07-06T08:08:56;1.50;;;0.60;;
11854;SDS011;5987;53.140;8.904;2022-07-06T08:12:00;3.57;;;0.70;;
11854;SDS011;5987;53.140;8.904;2022-07-06T08:15:04;1.30;;;0.57;;
11854;SDS011;5987;53.140;8.904;2022-07-06T08:18:11;1.63;;;0.50;;
11854;SDS011;5987;53.140;8.904;2022-07-06T08:21:16;1.60;;;0.50;;
11854;SDS011;5987;53.140;8.904;2022-07-06T08:24:27;2.00;;;0.40;;
11854;SDS011;5987;53.140;8.904;2022-07-06T08:27:31;2.90;;;0.50;;
11854;SDS011;5987;53.140;8.904;2022-07-06T08:30:35;2.33;;;0.50;;
11854;SDS011;5987;53.140;8.904;2022-07-06T08:33:40;2.33;;;0.43;;
11854;SDS011;5987;53.140;8.904;2022-07-06T08:36:44;2.83;;;0.90;;
11854;SDS011;5987;53.140;8.904;2022-07-06T08:39:48;2.83;;;0.50;;
11854;SDS011;5987;53.140;8.904;2022-07-06T08:42:53;1.67;;;0.40;;
11854;SDS011;5987;53.140;8.904;2022-07-06T08:45:58;2.23;;;0.50;;
11854;SDS011;5987;53.140;8.904;2022-07-06T08:49:05;3.07;;;0.43;;
11854;SDS011;5987;53.140;8.904;2022-07-06T08:52:10;1.63;;;0.40;;
11854;SDS011;5987;53.140;8.904;2022-07-06T08:55:15;2.90;;;0.50;;
11854;SDS011;5987;53.140;8.904;2022-07-06T08:58:20;0.73;;;0.40;;
11854;SDS011;5987;53.140;8.904;2022-07-06T09:01:26;2.23;;;0.50;;
11854;SDS011;5987;53.140;8.904;2022-07-06T09:04:33;2.27;;;0.50;;
11854;SDS011;5987;53.140;8.904;2022-07-06T09:07:39;2.83;;;0.57;;
11854;SDS011;5987;53.140;8.904;2022-07-06T09:11:00;1.90;;;0.33;;
11854;SDS011;5987;53.140;8.904;2022-07-06T09:14:04;2.90;;;0.70;;
11854;SDS011;5987;53.140;8.904;2022-07-06T09:17:07;1.30;;;0.60;;
11854;SDS011;5987;53.140;8.904;2022-07-06T09:20:19;3.20;;;0.50;;
11854;SDS011;5987;53.140;8.904;2022-07-06T09:23:22;4.40;;;0.40;;
11854;SDS011;5987;53.140;8.904;2022-07-06T09:26:27;3.53;;;0.70;;
11854;SDS011;5987;53.140;8.904;2022-07-06T09:29:31;2.70;;;0.30;;
11854;SDS011;5987;53.140;8.904;2022-07-06T09:32:39;1.50;;;0.30;;
11854;SDS011;5987;53.140;8.904;2022-07-06T09:35:46;2.37;;;0.50;;
11854;SDS011;5987;53.140;8.904;2022-07-06T09:38:50;3.50;;;0.50;;
11854;SDS011;5987;53.140;8.904;2022-07-06T09:41:54;2.30;;;0.67;;
11854;SDS011;5987;53.140;8.904;2022-07-06T09:45:00;2.50;;;0.40;;
11854;SDS011;5987;53.140;8.904;2022-07-06T09:48:09;2.63;;;0.53;;
11854;SDS011;5987;53.140;8.904;2022-07-06T09:51:16;2.63;;;0.60;;
11854;SDS011;5987;53.140;8.904;2022-07-06T09:54:27;2.33;;;0.53;;
11854;SDS011;5987;53.140;8.904;2022-07-06T09:57:31;2.97;;;0.60;;
11854;SDS011;5987;53.140;8.904;2022-07-06T10:00:34;4.83;;;0.80;;
11854;SDS011;5987;53.140;8.904;2022-07-06T10:03:39;2.27;;;0.63;;
11854;SDS011;5987;53.140;8.904;2022-07-06T10:06:45;4.73;;;1.17;;
11854;SDS011;5987;53.140;8.904;2022-07-06T10:09:50;2.57;;;0.50;;
11854;SDS011;5987;53.140;8.904;2022-07-06T10:12:55;3.87;;;0.70;;
11854;SDS011;5987;53.140;8.904;2022-07-06T10:16:00;2.40;;;0.40;;
11854;SDS011;5987;53.140;8.904;2022-07-06T10:19:04;2.80;;;1.00;;
11854;SDS011;5987;53.140;8.904;2022-07-06T10:22:11;2.07;;;0.50;;
11854;SDS011;5987;53.140;8.904;2022-07-06T10:25:19;0.80;;;0.30;;
11854;SDS011;5987;53.140;8.904;2022-07-06T10:28:24;3.20;;;1.43;;
11854;SDS011;5987;53.140;8.904;2022-07-06T10:31:29;3.47;;;0.70;;
11854;SDS011;5987;53.140;8.904;2022-07-06T10:34:35;1.27;;;0.40;;
11854;SDS011;5987;53.140;8.904;2022-07-06T10:37:40;1.60;;;0.47;;
11854;SDS011;5987;53.140;8.904;2022-07-06T10:40:45;1.70;;;0.40;;
11854;SDS011;5987;53.140;8.904;2022-07-06T10:44:14;2.77;;;0.67;;
11854;SDS011;5987;53.140;8.904;2022-07-06T10:47:24;1.07;;;0.40;;
11854;SDS011;5987;53.140;8.904;2022-07-06T10:50:34;2.70;;;0.43;;
11854;SDS011;5987;53.140;8.904;2022-07-06T10:53:40;1.57;;;0.50;;
11854;SDS011;5987;53.140;8.904;2022-07-06T10:56:46;2.50;;;0.60;;
11854;SDS011;5987;53.140;8.904;2022-07-06T10:59:59;8.00;;;0.70;;
11854;SDS011;5987;53.140;8.904;2022-07-06T11:06:37;2.83;;;0.70;;
11854;SDS011;5987;53.140;8.904;2022-07-06T11:09:45;5.23;;;0.60;;
11854;SDS011;5987;53.140;8.904;2022-07-06T11:12:58;3.60;;;0.80;;
11854;SDS011;5987;53.140;8.904;2022-07-06T11:16:03;3.23;;;0.70;;
11854;SDS011;5987;53.140;8.904;2022-07-06T11:19:10;2.27;;;0.50;;
11854;SDS011;5987;53.140;8.904;2022-07-06T11:22:16;2.27;;;0.53;;
11854;SDS011;5987;53.140;8.904;2022-07-06T11:25:22;4.93;;;0.70;;
11854;SDS011;5987;53.140;8.904;2022-07-06T11:28:26;3.47;;;0.60;;
11854;SDS011;5987;53.140;8.904;2022-07-06T11:31:35;2.33;;;0.90;;
11854;SDS011;5987;53.140;8.904;2022-07-06T11:34:41;3.17;;;0.80;;
11854;SDS011;5987;53.140;8.904;2022-07-06T11:37:47;3.63;;;0.60;;
11854;SDS011;5987;53.140;8.904;2022-07-06T11:40:54;5.13;;;0.97;;
11854;SDS011;5987;53.140;8.904;2022-07-06T11:43:57;1.90;;;0.53;;
11854;SDS011;5987;53.140;8.904;2022-07-06T11:47:02;2.23;;;0.60;;
11854;SDS011;5987;53.140;8.904;2022-07-06T11:50:08;1.13;;;0.70;;
11854;SDS011;5987;53.140;8.904;2022-07-06T11:53:13;1.57;;;0.60;;
11854;SDS011;5987;53.140;8.904;2022-07-06T11:56:19;1.97;;;0.50;;
11854;SDS011;5987;53.140;8.904;2022-07-06T11:59:27;1.33;;;0.50;;
11854;SDS011;5987;53.140;8.904;2022-07-06T12:02:32;1.50;;;0.30;;
11854;SDS011;5987;53.140;8.904;2022-07-06T12:05:36;2.13;;;0.30;;
11854;SDS011;5987;53.140;8.904;2022-07-06T12:08:41;1.30;;;0.30;;
11854;SDS011;5987;53.140;8.904;2022-07-06T12:11:48;2.53;;;0.30;;
11854;SDS011;5987;53.140;8.904;2022-07-06T12:14:52;3.03;;;0.40;;
11854;SDS011;5987;53.140;8.904;2022-07-06T12:17:56;3.23;;;0.40;;
11854;SDS011;5987;53.140;8.904;2022-07-06T12:21:00;2.57;;;0.50;;
11854;SDS011;5987;53.140;8.904;2022-07-06T12:24:06;1.83;;;0.40;;
11854;SDS011;5987;53.140;8.904;2022-07-06T12:27:13;1.50;;;0.30;;
11854;SDS011;5987;53.140;8.904;2022-07-06T12:30:19;3.20;;;0.40;;
11854;SDS011;5987;53.140;8.904;2022-07-06T12:33:24;0.97;;;0.30;;
11854;SDS011;5987;53.140;8.904;2022-07-06T12:36:30;1.87;;;0.40;;
11854;SDS011;5987;53.140;8.904;2022-07-06T12:39:46;1.60;;;0.40;;
11854;SDS011;5987;53.140;8.904;2022-07-06T12:42:53;1.70;;;0.30;;
11854;SDS011;5987;53.140;8.904;2022-07-06T12:45:56;1.17;;;0.40;;
11854;SDS011;5987;53.140;8.904;2022-07-06T12:49:01;0.90;;;0.43;;
11854;SDS011;5987;53.140;8.904;2022-07-06T12:52:14;1.87;;;0.43;;
11854;SDS011;5987;53.140;8.904;2022-07-06T12:55:19;1.60;;;0.30;;
11854;SDS011;5987;53.140;8.904;2022-07-06T12:58:31;2.93;;;0.40;;
11854;SDS011;5987;53.140;8.904;2022-07-06T13:01:34;3.87;;;0.63;;
11854;SDS011;5987;53.140;8.904;2022-07-06T13:04:38;1.93;;;0.70;;
11854;SDS011;5987;53.140;8.904;2022-07-06T13:07:43;1.53;;;0.80;;
11854;SDS011;5987;53.140;8.904;2022-07-06T13:10:50;13.73;;;1.77;;
11854;SDS011;5987;53.140;8.904;2022-07-06T13:13:55;2.87;;;0.60;;
11854;SDS011;5987;53.140;8.904;2022-07-06T13:16:59;1.73;;;0.40;;
11854;SDS011;5987;53.140;8.904;2022-07-06T13:20:03;2.63;;;0.60;;
11854;SDS011;5987;53.140;8.904;2022-07-06T13:23:08;1.03;;;0.50;;
11854;SDS011;5987;53.140;8.904;2022-07-06T13:26:13;3.53;;;0.30;;
11854;SDS011;5987;53.140;8.904;2022-07-06T13:29:18;3.50;;;0.50;;
11854;SDS011;5987;53.140;8.904;2022-07-06T13:32:22;2.03;;;0.40;;
11854;SDS011;5987;53.140;8.904;2022-07-06T13:35:25;2.60;;;0.40;;
11854;SDS011;5987;53.140;8.904;2022-07-06T13:38:29;1.10;;;0.30;;
11854;SDS011;5987;53.140;8.904;2022-07-06T13:41:33;2.23;;;0.50;;
11854;SDS011;5987;53.140;8.904;2022-07-06T13:44:38;1.17;;;0.60;;
11854;SDS011;5987;53.140;8.904;2022-07-06T13:47:42;2.10;;;0.40;;
11854;SDS011;5987;53.140;8.904;2022-07-06T13:50:45;4.27;;;0.77;;
11854;SDS011;5987;53.140;8.904;2022-07-06T13:53:49;2.53;;;0.30;;
11854;SDS011;5987;53.140;8.904;2022-07-06T13:56:53;1.67;;;0.50;;
11854;SDS011;5987;53.140;8.904;2022-07-06T13:59:58;1.97;;;0.20;;
11854;SDS011;5987;53.140;8.904;2022-07-06T14:03:02;1.00;;;0.33;;
11854;SDS011;5987;53.140;8.904;2022-07-06T14:06:06;1.53;;;0.40;;
11854;SDS011;5987;53.140;8.904;2022-07-06T14:09:11;2.27;;;0.40;;
11854;SDS011;5987;53.140;8.904;2022-07-06T14:12:15;1.80;;;0.40;;
11854;SDS011;5987;53.140;8.904;2022-07-06T14:15:22;2.00;;;0.23;;
11854;SDS011;5987;53.140;8.904;2022-07-06T14:18:26;2.43;;;0.37;;
11854;SDS011;5987;53.140;8.904;2022-07-06T14:21:30;3.60;;;0.40;;
11854;SDS011;5987;53.140;8.904;2022-07-06T14:24:34;4.40;;;0.50;;
11854;SDS011;5987;53.140;8.904;2022-07-06T14:27:37;0.37;;;0.20;;
11854;SDS011;5987;53.140;8.904;2022-07-06T14:30:44;1.80;;;0.40;;
11854;SDS011;5987;53.140;8.904;2022-07-06T14:33:48;1.20;;;0.30;;
11854;SDS011;5987;53.140;8.904;2022-07-06T14:36:52;0.20;;;0.20;;
11854;SDS011;5987;53.140;8.904;2022-07-06T14:39:56;2.23;;;0.30;;
11854;SDS011;5987;53.140;8.904;2022-07-06T14:42:59;1.03;;;0.40;;
11854;SDS011;5987;53.140;8.904;2022-07-06T14:46:05;1.20;;;0.30;;
11854;SDS011;5987;53.140;8.904;2022-07-06T14:49:09;0.90;;;0.30;;
11854;SDS011;5987;53.140;8.904;2022-07-06T14:52:21;0.77;;;0.23;;
11854;SDS011;5987;53.140;8.904;2022-07-06T14:55:24;2.30;;;0.30;;
11854;SDS011;5987;53.140;8.904;2022-07-06T14:58:28;3.90;;;0.37;;
11854;SDS011;5987;53.140;8.904;2022-07-06T15:01:33;1.70;;;0.40;;
11854;SDS011;5987;53.140;8.904;2022-07-06T15:04:37;3.00;;;1.13;;
11854;SDS011;5987;53.140;8.904;2022-07-06T15:07:41;0.63;;;0.17;;
11854;SDS011;5987;53.140;8.904;2022-07-06T15:10:48;5.90;;;0.63;;
11854;SDS011;5987;53.140;8.904;2022-07-06T15:13:52;1.37;;;0.30;;
11854;SDS011;5987;53.140;8.904;2022-07-06T15:16:57;3.27;;;0.37;;
11854;SDS011;5987;53.140;8.904;2022-07-06T15:20:01;1.43;;;0.30;;
11854;SDS011;5987;53.140;8.904;2022-07-06T15:23:05;3.73;;;0.60;;
11854;SDS011;5987;53.140;8.904;2022-07-06T15:26:09;1.70;;;0.40;;
11854;SDS011;5987;53.140;8.904;2022-07-06T15:29:13;3.33;;;0.47;;
11854;SDS011;5987;53.140;8.904;2022-07-06T15:32:18;1.97;;;0.47;;
11854;SDS011;5987;53.140;8.904;2022-07-06T15:35:23;3.43;;;0.50;;
11854;SDS011;5987;53.140;8.904;2022-07-06T15:38:26;2.37;;;0.63;;
11854;SDS011;5987;53.140;8.904;2022-07-06T15:41:30;3.43;;;0.60;;
11854;SDS011;5987;53.140;8.904;2022-07-06T15:44:35;2.63;;;0.70;;
11854;SDS011;5987;53.140;8.904;2022-07-06T15:47:40;3.80;;;1.00;;
11854;SDS011;5987;53.140;8.904;2022-07-06T15:50:43;3.70;;;0.60;;
11854;SDS011;5987;53.140;8.904;2022-07-06T15:53:47;2.27;;;0.60;;
11854;SDS011;5987;53.140;8.904;2022-07-06T15:56:53;1.10;;;0.60;;
11854;SDS011;5987;53.140;8.904;2022-07-06T15:59:57;4.03;;;0.97;;
11854;SDS011;5987;53.140;8.904;2022-07-06T16:03:02;2.47;;;0.90;;
11854;SDS011;5987;53.140;8.904;2022-07-06T16:06:06;2.90;;;0.80;;
11854;SDS011;5987;53.140;8.904;2022-07-06T16:09:15;5.07;;;0.70;;
11854;SDS011;5987;53.140;8.904;2022-07-06T16:12:19;2.13;;;0.70;;
11854;SDS011;5987;53.140;8.904;2022-07-06T16:15:23;2.30;;;0.97;;
11854;SDS011;5987;53.140;8.904;2022-07-06T16:18:28;2.43;;;0.80;;
11854;SDS011;5987;53.140;8.904;2022-07-06T16:21:32;3.60;;;0.70;;
11854;SDS011;5987;53.140;8.904;2022-07-06T16:24:36;2.93;;;0.77;;
11854;SDS011;5987;53.140;8.904;2022-07-06T16:27:41;1.50;;;0.43;;
11854;SDS011;5987;53.140;8.904;2022-07-06T16:30:45;1.77;;;0.57;;
11854;SDS011;5987;53.140;8.904;2022-07-06T16:33:51;2.70;;;0.70;;
11854;SDS011;5987;53.140;8.904;2022-07-06T16:36:54;1.53;;;0.60;;
11854;SDS011;5987;53.140;8.904;2022-07-06T16:39:58;2.77;;;0.60;;
11854;SDS011;5987;53.140;8.904;2022-07-06T16:43:02;1.33;;;0.30;;
11854;SDS011;5987;53.140;8.904;2022-07-06T16:46:06;2.97;;;0.80;;
11854;SDS011;5987;53.140;8.904;2022-07-06T16:49:11;2.57;;;0.60;;
11854;SDS011;5987;53.140;8.904;2022-07-06T16:52:16;1.33;;;0.50;;
11854;SDS011;5987;53.140;8.904;2022-07-06T16:55:20;2.97;;;0.93;;
11854;SDS011;5987;53.140;8.904;2022-07-06T16:58:23;3.47;;;0.80;;
11854;SDS011;5987;53.140;8.904;2022-07-06T17:01:28;2.80;;;0.83;;
11854;SDS011;5987;53.140;8.904;2022-07-06T17:04:33;3.50;;;0.80;;
11854;SDS011;5987;53.140;8.904;2022-07-06T17:07:37;1.87;;;0.57;;
11854;SDS011;5987;53.140;8.904;2022-07-06T17:10:41;3.33;;;0.70;;
11854;SDS011;5987;53.140;8.904;2022-07-06T17:13:44;2.67;;;0.57;;
11854;SDS011;5987;53.140;8.904;2022-07-06T17:16:48;3.57;;;0.67;;
11854;SDS011;5987;53.140;8.904;2022-07-06T17:19:54;2.93;;;0.70;;
11854;SDS011;5987;53.140;8.904;2022-07-06T17:22:58;6.23;;;0.87;;
11854;SDS011;5987;53.140;8.904;2022-07-06T17:26:02;2.23;;;0.70;;
11854;SDS011;5987;53.140;8.904;2022-07-06T17:29:05;2.97;;;0.90;;
11854;SDS011;5987;53.140;8.904;2022-07-06T17:32:09;1.80;;;0.60;;
11854;SDS011;5987;53.140;8.904;2022-07-06T17:35:16;2.90;;;0.67;;
11854;SDS011;5987;53.140;8.904;2022-07-06T17:38:20;2.93;;;0.70;;
11854;SDS011;5987;53.140;8.904;2022-07-06T17:41:24;1.70;;;0.70;;
11854;SDS011;5987;53.140;8.904;2022-07-06T17:44:28;4.43;;;0.87;;
11854;SDS011;5987;53.140;8.904;2022-07-06T17:47:32;0.80;;;0.50;;
11854;SDS011;5987;53.140;8.904;2022-07-06T17:50:38;1.77;;;1.03;;
11854;SDS011;5987;53.140;8.904;2022-07-06T17:53:42;2.93;;;0.67;;
11854;SDS011;5987;53.140;8.904;2022-07-06T17:56:46;1.53;;;0.60;;
11854;SDS011;5987;53.140;8.904;2022-07-06T17:59:50;2.30;;;0.70;;
11854;SDS011;5987;53.140;8.904;2022-07-06T18:02:53;1.30;;;0.70;;
11854;SDS011;5987;53.140;8.904;2022-07-06T18:05:59;3.30;;;0.80;;
11854;SDS011;5987;53.140;8.904;2022-07-06T18:09:03;2.57;;;0.70;;
11854;SDS011;5987;53.140;8.904;2022-07-06T18:12:08;3.17;;;1.07;;
11854;SDS011;5987;53.140;8.904;2022-07-06T18:15:15;2.93;;;0.70;;
11854;SDS011;5987;53.140;8.904;2022-07-06T18:18:19;6.03;;;0.53;;
11854;SDS011;5987;53.140;8.904;2022-07-06T18:21:24;3.20;;;0.93;;
11854;SDS011;5987;53.140;8.904;2022-07-06T18:24:28;2.77;;;1.20;;
11854;SDS011;5987;53.140;8.904;2022-07-06T18:27:32;3.10;;;0.70;;
11854;SDS011;5987;53.140;8.904;2022-07-06T18:30:36;2.83;;;0.93;;
11854;SDS011;5987;53.140;8.904;2022-07-06T18:33:40;1.47;;;0.53;;
11854;SDS011;5987;53.140;8.904;2022-07-06T18:36:45;2.67;;;0.70;;
11854;SDS011;5987;53.140;8.904;2022-07-06T18:39:49;2.90;;;0.70;;
11854;SDS011;5987;53.140;8.904;2022-07-06T18:42:53;3.60;;;0.90;;
11854;SDS011;5987;53.140;8.904;2022-07-06T18:45:57;1.87;;;0.60;;
11854;SDS011;5987;53.140;8.904;2022-07-06T18:49:00;4.27;;;0.80;;
11854;SDS011;5987;53.140;8.904;2022-07-06T18:52:06;1.93;;;1.03;;
11854;SDS011;5987;53.140;8.904;2022-07-06T18:55:10;2.20;;;1.00;;